Data for 12/16/2016

Time Sea-Level Adjusted Pressure Absolute Pressure Temperature Relative Humidity Dew Point   
(mb) (inHg) (mb) (inHg) (C) (F) (%) (C) (F)
00:05 1010 29.83 839 24.78 -13 8.6 80 -15.8 3.6
00:10 1010 29.83 839 24.78 -13.1 8.4 80 -15.9 3.5
00:15 1010 29.83 839 24.78 -13.1 8.4 81 -15.7 3.7
00:20 1010 29.83 839 24.78 -13.1 8.4 81 -15.8 3.6
00:25 1010 29.83 839 24.78 -13.1 8.5 80 -15.8 3.6
00:30 1010 29.83 839 24.78 -13.2 8.3 81 -15.8 3.6
00:35 1010 29.83 839 24.78 -13.2 8.3 81 -15.8 3.6
00:40 1009 29.8 839 24.78 -13.2 8.3 81 -15.7 3.7
00:45 1009 29.8 839 24.78 -13.2 8.3 81 -15.8 3.5
00:50 1009 29.8 839 24.78 -13.3 8.2 81 -15.9 3.4
00:55 1009 29.8 839 24.78 -13.3 8 82 -15.8 3.5
01:00 1009 29.8 839 24.78 -13.3 8 81 -15.9 3.4
01:05 1009 29.8 839 24.78 -13.3 8 81 -15.9 3.4
01:10 1009 29.8 838 24.75 -13.3 8.1 81 -15.8 3.5
01:15 1009 29.8 838 24.75 -13.2 8.2 82 -15.7 3.7
01:20 1009 29.8 838 24.75 -13.1 8.4 81 -15.7 3.7
01:25 1009 29.8 838 24.75 -13.1 8.4 81 -15.8 3.6
01:30 1009 29.8 838 24.75 -13.2 8.3 81 -15.8 3.5
01:35 1009 29.8 838 24.75 -13.3 8 81 -15.9 3.4
01:40 1009 29.8 838 24.75 -13.3 8 81 -15.9 3.4
01:45 1009 29.8 838 24.75 -13.4 8 79 -16.2 2.8
01:50 1009 29.8 838 24.75 -13.4 7.8 76 -16.7 1.9
01:55 1009 29.8 838 24.75 -13.4 7.9 75 -16.9 1.6
02:00 1009 29.8 838 24.75 -13.4 7.9 76 -16.7 1.9
02:05 1009 29.8 838 24.75 -13.4 7.9 77 -16.6 2.1
02:10 1009 29.8 838 24.75 -13.4 7.8 79 -16.4 2.5
02:15 1009 29.8 838 24.75 -13.5 7.7 78 -16.5 2.3
02:20 1009 29.8 838 24.75 -13.6 7.6 79 -16.4 2.4
02:25 1009 29.8 838 24.75 -13.4 7.8 80 -16.3 2.7
02:30 1008 29.77 838 24.75 -13.5 7.7 78 -16.6 2.1
02:35 1008 29.77 838 24.75 -13.6 7.5 75 -17.1 1.2
02:40 1009 29.8 838 24.75 -13.7 7.4 77 -17 1.5
02:45 1008 29.77 838 24.75 -13.6 7.5 80 -16.4 2.4
02:50 1008 29.77 838 24.75 -13.6 7.6 80 -16.4 2.6
02:55 1008 29.77 838 24.75 -13.9 7 81 -16.4 2.5
03:00 1008 29.77 837 24.72 -14 6.8 79 -16.8 1.7
03:05 1008 29.77 838 24.75 -13.9 7 79 -16.7 1.9
03:10 1008 29.77 837 24.72 -14 6.9 81 -16.6 2.2
03:15 1008 29.77 837 24.72 -13.8 7.1 79 -16.7 2
03:20 1008 29.77 837 24.72 -13.7 7.3 79 -16.6 2.1
03:25 1008 29.77 838 24.75 -13.8 7.2 79 -16.6 2.1
03:30 1008 29.77 838 24.75 -14 6.8 80 -16.7 1.9
03:35 1008 29.77 838 24.75 -14.1 6.6 81 -16.7 1.9
03:40 1008 29.77 837 24.72 -14.2 6.5 80 -16.9 1.6
03:45 1008 29.77 837 24.72 -14.4 6.1 81 -17 1.5
03:50 1008 29.77 837 24.72 -14.5 6 81 -17 1.4
03:55 1008 29.77 837 24.72 -14.4 6.1 82 -16.9 1.6
04:00 1008 29.77 837 24.72 -14.4 6.1 81 -17 1.5
04:05 1008 29.77 837 24.72 -14.5 5.9 81 -17.1 1.3
04:10 1008 29.77 837 24.72 -14.5 5.9 81 -17.1 1.3
04:15 1008 29.77 837 24.72 -14.5 6 80 -17.2 1
04:20 1008 29.77 837 24.72 -14.5 5.9 81 -17.1 1.2
04:25 1008 29.77 837 24.72 -14.6 5.7 81 -17.2 1
04:30 1008 29.77 837 24.72 -14.7 5.6 81 -17.2 1
04:35 1008 29.77 837 24.72 -14.7 5.5 81 -17.3 0.9
04:40 1008 29.77 837 24.72 -14.7 5.5 81 -17.3 0.9
04:45 1008 29.77 837 24.72 -14.7 5.5 81 -17.4 0.8
04:50 1008 29.77 837 24.72 -14.8 5.4 81 -17.4 0.7
04:55 1007 29.74 837 24.72 -14.9 5.3 80 -17.6 0.4
05:00 1007 29.74 837 24.72 -14.7 5.6 78 -17.6 0.2
05:05 1007 29.74 837 24.72 -14.5 5.9 77 -17.6 0.3
05:10 1007 29.74 837 24.72 -14.8 5.4 79 -17.7 0.2
05:15 1007 29.74 837 24.72 -15 4.9 78 -18.1 -0.6
05:20 1007 29.74 837 24.72 -15.1 4.9 79 -17.9 -0.2
05:25 1007 29.74 836 24.69 -15.1 4.8 80 -17.9 -0.1
05:30 1007 29.74 836 24.69 -15.2 4.6 80 -17.9 -0.2
05:35 1007 29.74 836 24.69 -15.4 4.4 81 -17.9 -0.2
05:40 1007 29.74 836 24.69 -15.3 4.5 80 -18 -0.3
05:45 1007 29.74 836 24.69 -15.4 4.3 81 -18 -0.4
05:50 1007 29.74 836 24.69 -15.4 4.3 79 -18.2 -0.8
05:55 1007 29.74 836 24.69 -15.4 4.3 78 -18.4 -1.1
06:00 1007 29.74 836 24.69 -15 5 75 -18.6 -1.4
06:05 1007 29.74 836 24.69 -14.9 5.3 75 -18.3 -0.9
06:10 1007 29.74 836 24.69 -14.9 5.1 76 -18.2 -0.8
06:15 1007 29.74 836 24.69 -15 5 78 -18.1 -0.5
06:20 1007 29.74 836 24.69 -15.4 4.3 79 -18.3 -0.9
06:25 1007 29.74 836 24.69 -15.9 3.3 81 -18.5 -1.3
06:30 1007 29.74 836 24.69 -16.2 2.9 82 -18.6 -1.5
06:35 1006 29.71 836 24.69 -16.3 2.6 83 -18.7 -1.6
06:40 1006 29.71 836 24.69 -16.3 2.6 82 -18.7 -1.7
06:45 1006 29.71 836 24.69 -16.4 2.4 83 -18.6 -1.5
06:50 1006 29.71 835 24.66 -16.3 2.7 83 -18.6 -1.5
06:55 1006 29.71 836 24.69 -16.3 2.7 81 -18.8 -1.9
07:00 1006 29.71 835 24.66 -16.1 3 82 -18.6 -1.4
07:05 1006 29.71 835 24.66 -15.8 3.6 80 -18.4 -1.2
07:10 1006 29.71 835 24.66 -15.8 3.5 81 -18.4 -1.1
07:15 1006 29.71 835 24.66 -15.7 3.8 80 -18.4 -1.1
07:20 1006 29.71 835 24.66 -15.6 3.8 79 -18.5 -1.3
07:25 1006 29.71 836 24.69 -15.9 3.4 81 -18.4 -1.2
07:30 1006 29.71 836 24.69 -16.2 2.8 82 -18.7 -1.6
07:35 1006 29.71 835 24.66 -16.2 2.8 79 -19.1 -2.3
07:40 1006 29.71 835 24.66 -16.1 3 80 -18.9 -2
07:45 1006 29.71 836 24.69 -16.2 2.9 79 -19.1 -2.3
07:50 1007 29.74 836 24.69 -16.2 2.9 79 -18.9 -2.1
07:55 1007 29.74 836 24.69 -16.2 2.9 79 -18.9 -2.1
08:00 1007 29.74 836 24.69 -16.2 2.9 80 -18.9 -2
08:05 1007 29.74 836 24.69 -16.3 2.7 80 -19 -2.2
08:10 1007 29.74 836 24.69 -16.3 2.7 79 -19.1 -2.5
08:15 1007 29.74 836 24.69 -16.4 2.6 80 -19.1 -2.4
08:20 1007 29.74 836 24.69 -16.4 2.4 80 -19.2 -2.5
08:25 1007 29.74 836 24.69 -16.5 2.3 80 -19.1 -2.5
08:30 1007 29.74 836 24.69 -16.5 2.2 80 -19.2 -2.6
08:35 1007 29.74 836 24.69 -16.6 2.2 80 -19.3 -2.7
08:40 1007 29.74 836 24.69 -16.6 2.1 80 -19.3 -2.8
08:45 1007 29.74 836 24.69 -16.8 1.9 80 -19.4 -2.9
08:50 1007 29.74 836 24.69 -16.7 1.9 80 -19.4 -3
08:55 1007 29.74 836 24.69 -16.7 2 79 -19.5 -3
09:00 1007 29.74 836 24.69 -16.7 2 80 -19.3 -2.8
09:05 1007 29.74 836 24.69 -16.6 2 80 -19.4 -2.9
09:10 1007 29.74 836 24.69 -16.7 2 79 -19.5 -3.1
09:15 1007 29.74 836 24.69 -16.8 1.8 79 -19.6 -3.2
09:20 1007 29.74 836 24.69 -16.8 1.8 79 -19.6 -3.2
09:25 1007 29.74 836 24.69 -16.9 1.6 79 -19.8 -3.6
09:30 1007 29.74 836 24.69 -17 1.4 79 -19.8 -3.6
09:35 1007 29.74 837 24.72 -17 1.4 80 -19.8 -3.6
09:40 1007 29.74 837 24.72 -17.1 1.3 79 -19.9 -3.8
09:45 1007 29.74 837 24.72 -17.1 1.2 80 -19.8 -3.7
09:50 1007 29.74 837 24.72 -17.2 1.1 80 -19.8 -3.6
09:55 1008 29.77 837 24.72 -16.9 1.5 80 -19.6 -3.4
10:00 1008 29.77 837 24.72 -16.8 1.8 79 -19.6 -3.2
10:05 1008 29.77 837 24.72 -16.8 1.8 79 -19.7 -3.4
10:10 1008 29.77 837 24.72 -16.8 1.8 79 -19.7 -3.4
10:15 1008 29.77 837 24.72 -16.8 1.7 79 -19.7 -3.4
10:20 1008 29.77 837 24.72 -16.8 1.7 79 -19.7 -3.5
10:25 1008 29.77 837 24.72 -16.9 1.5 78 -19.9 -3.8
10:30 1008 29.77 837 24.72 -17 1.4 79 -19.8 -3.6
10:35 1008 29.77 837 24.72 -16.9 1.6 79 -19.8 -3.6
10:40 1008 29.77 837 24.72 -16.9 1.5 79 -19.8 -3.6
10:45 1008 29.77 837 24.72 -16.9 1.6 78 -19.9 -3.7
10:50 1008 29.77 837 24.72 -16.9 1.6 79 -19.8 -3.6
10:55 1009 29.8 838 24.75 -17 1.5 78 -20 -4
11:00 1008 29.77 838 24.75 -17 1.4 79 -19.8 -3.6
11:05 1008 29.77 837 24.72 -16.6 2.1 78 -19.7 -3.4
11:10 1008 29.77 837 24.72 -16.6 2.2 76 -19.9 -3.8
11:15 1008 29.77 838 24.75 -16.6 2.1 74 -20.1 -4.2
11:20 1008 29.77 838 24.75 -16.5 2.4 74 -20.1 -4.1
11:25 1008 29.77 837 24.72 -16.5 2.3 75 -20 -4
11:30 1008 29.77 837 24.72 -16.5 2.2 74 -20.2 -4.4
11:35 1008 29.77 838 24.75 -16.6 2.2 72 -20.5 -4.8
11:40 1008 29.77 838 24.75 -16.6 2.1 74 -20.3 -4.5
11:45 1008 29.77 837 24.72 -16.6 2.1 74 -20.3 -4.6
11:50 1008 29.77 837 24.72 -16.7 2 75 -20.1 -4.3
11:55 1008 29.77 837 24.72 -16.7 1.9 77 -19.8 -3.7
12:00 1008 29.77 838 24.75 -16.9 1.6 78 -19.8 -3.7
12:05 1009 29.8 838 24.75 -17 1.5 77 -20.2 -4.3
12:10 1008 29.77 838 24.75 -16.8 1.7 78 -19.8 -3.7
12:15 1008 29.77 838 24.75 -16.8 1.7 76 -20.2 -4.3
12:20 1008 29.77 837 24.72 -17.1 1.3 76 -20.4 -4.8
12:25 1008 29.77 837 24.72 -16.8 1.9 76 -20.1 -4.1
12:30 1008 29.77 838 24.75 -16.7 2 76 -19.9 -3.8
12:35 1008 29.77 838 24.75 -16.1 3.1 73 -19.9 -3.8
12:40 1008 29.77 838 24.75 -16 3.1 72 -20 -4.1
12:45 1008 29.77 838 24.75 -16.4 2.6 67 -21.2 -6.1
12:50 1008 29.77 838 24.75 -16.7 2 67 -21.4 -6.5
12:55 1008 29.77 838 24.75 -16.9 1.7 69 -21.3 -6.3
13:00 1008 29.77 837 24.72 -16.8 1.7 69 -21.2 -6.1
13:05 1009 29.8 838 24.75 -16.8 1.8 70 -21 -5.8
13:10 1009 29.8 838 24.75 -16.9 1.6 68 -21.5 -6.7
13:15 1009 29.8 838 24.75 -16.8 1.8 68 -21.3 -6.4
13:20 1008 29.77 838 24.75 -17 1.5 71 -21 -5.8
13:25 1008 29.77 837 24.72 -17 1.3 73 -20.9 -5.6
13:30 1008 29.77 838 24.75 -16.9 1.6 73 -20.7 -5.2
13:35 1008 29.77 838 24.75 -16.3 2.6 73 -20 -4.1
13:40 1008 29.77 838 24.75 -16.5 2.3 70 -20.7 -5.3
13:45 1009 29.8 838 24.75 -16.6 2.2 74 -20.2 -4.3
13:50 1009 29.8 838 24.75 -15.9 3.3 72 -19.9 -3.9
13:55 1009 29.8 838 24.75 -16.1 2.9 72 -20.1 -4.2
14:00 1009 29.8 838 24.75 -16.7 1.9 75 -20.2 -4.4
14:05 1009 29.8 838 24.75 -16.7 2 74 -20.3 -4.5
14:10 1009 29.8 838 24.75 -17.2 1.1 75 -20.6 -5.1
14:15 1009 29.8 838 24.75 -17.4 0.7 77 -20.5 -4.9
14:20 1009 29.8 838 24.75 -17.1 1.2 69 -21.5 -6.7
14:25 1009 29.8 838 24.75 -17.1 1.1 72 -21 -5.9
14:30 1009 29.8 838 24.75 -17 1.4 72 -20.8 -5.5
14:35 1009 29.8 839 24.78 -16.5 2.4 72 -20.4 -4.7
14:40 1009 29.8 839 24.78 -16.2 2.8 72 -20.2 -4.4
14:45 1009 29.8 839 24.78 -16.1 3 72 -20.1 -4.1
14:50 1010 29.83 839 24.78 -16.3 2.7 73 -20.1 -4.2
14:55 1009 29.8 839 24.78 -16.5 2.3 73 -20.3 -4.5
15:00 1009 29.8 839 24.78 -16.3 2.6 72 -20.3 -4.5
15:05 1010 29.83 839 24.78 -16.5 2.4 72 -20.4 -4.7
15:10 1010 29.83 839 24.78 -16.6 2.2 72 -20.5 -4.9
15:15 1010 29.83 839 24.78 -16.7 1.9 72 -20.6 -5.1
15:20 1010 29.83 839 24.78 -16.6 2.1 71 -20.6 -5.1
15:25 1010 29.83 839 24.78 -16.7 2 71 -20.7 -5.2
15:30 1010 29.83 839 24.78 -16.7 1.9 72 -20.6 -5
15:35 1010 29.83 839 24.78 -16.7 2 72 -20.6 -5.1
15:40 1010 29.83 839 24.78 -16.7 2 71 -20.7 -5.3
15:45 1010 29.83 839 24.78 -16.6 2.1 71 -20.7 -5.2
15:50 1010 29.83 839 24.78 -16.6 2.1 71 -20.7 -5.2
15:55 1010 29.83 839 24.78 -16.7 2 71 -20.8 -5.5
16:00 1010 29.83 839 24.78 -16.7 1.9 72 -20.7 -5.2
16:05 1010 29.83 839 24.78 -16.9 1.7 71 -21 -5.8
16:10 1010 29.83 840 24.81 -17.1 1.2 73 -20.8 -5.5
16:15 1010 29.83 840 24.81 -17 1.5 72 -20.8 -5.4
16:20 1011 29.85 840 24.81 -17 1.5 72 -20.9 -5.6
16:25 1011 29.85 840 24.81 -17.3 0.9 73 -21 -5.9
16:30 1010 29.83 840 24.81 -17.3 0.8 74 -20.9 -5.6
16:35 1010 29.83 840 24.81 -17.1 1.2 71 -21.1 -6
16:40 1010 29.83 840 24.81 -17.2 1 66 -22.2 -7.9
16:45 1010 29.83 840 24.81 -17.5 0.5 66 -22.5 -8.4
16:50 1010 29.83 840 24.81 -17.7 0.2 66 -22.6 -8.7
16:55 1010 29.83 840 24.81 -17.9 -0.2 65 -22.9 -9.3
17:00 1010 29.83 840 24.81 -18 -0.4 66 -22.9 -9.3
17:05 1011 29.85 840 24.81 -18.1 -0.6 66 -23 -9.4
17:10 1011 29.85 840 24.81 -18.1 -0.6 64 -23.3 -9.9
17:15 1011 29.85 840 24.81 -18.3 -0.9 66 -23.2 -9.8
17:20 1011 29.85 840 24.81 -18.4 -1.1 64 -23.7 -10.6
17:25 1011 29.85 840 24.81 -18.5 -1.2 66 -23.4 -10.1
17:30 1011 29.85 840 24.81 -18.6 -1.4 65 -23.6 -10.5
17:35 1011 29.85 840 24.81 -18.6 -1.5 68 -23.2 -9.7
17:40 1011 29.85 840 24.81 -18.6 -1.5 66 -23.4 -10.2
17:45 1011 29.85 841 24.83 -18.7 -1.6 65 -23.7 -10.6
17:50 1011 29.85 841 24.83 -18.7 -1.7 67 -23.4 -10.1
17:55 1011 29.85 841 24.83 -18.7 -1.7 68 -23.3 -10
18:00 1011 29.85 841 24.83 -18.8 -1.9 66 -23.7 -10.7
18:05 1012 29.88 841 24.83 -18.9 -2.1 67 -23.6 -10.5
18:10 1012 29.88 841 24.83 -19 -2.2 67 -23.6 -10.5
18:15 1012 29.88 841 24.83 -19 -2.3 65 -24.1 -11.3
18:20 1012 29.88 841 24.83 -19.1 -2.4 67 -23.7 -10.7
18:25 1012 29.88 841 24.83 -19.1 -2.3 67 -23.7 -10.7
18:30 1012 29.88 841 24.83 -19.1 -2.4 68 -23.6 -10.4
18:35 1012 29.88 841 24.83 -19.1 -2.4 65 -24.1 -11.5
18:40 1012 29.88 841 24.83 -19.2 -2.5 66 -24 -11.1
18:45 1012 29.88 841 24.83 -19.3 -2.7 66 -24.1 -11.4
18:50 1012 29.88 841 24.83 -19.4 -2.8 67 -24.1 -11.3
18:55 1012 29.88 841 24.83 -19.4 -2.9 67 -24 -11.3
19:00 1012 29.88 842 24.86 -19.3 -2.8 66 -24.1 -11.5
19:05 1013 29.91 842 24.86 -19.5 -3.1 66 -24.3 -11.8
19:10 1013 29.91 842 24.86 -19.7 -3.4 67 -24.3 -11.8
19:15 1013 29.91 842 24.86 -19.7 -3.5 67 -24.3 -11.7
19:20 1013 29.91 842 24.86 -19.6 -3.3 68 -24.1 -11.3
19:25 1013 29.91 842 24.86 -19.5 -3.1 67 -24.2 -11.5
19:30 1013 29.91 842 24.86 -19.6 -3.2 66 -24.3 -11.8
19:35 1013 29.91 842 24.86 -19.7 -3.4 67 -24.4 -11.9
19:40 1013 29.91 842 24.86 -19.7 -3.5 67 -24.3 -11.7
19:45 1013 29.91 842 24.86 -19.8 -3.6 67 -24.4 -11.8
19:50 1013 29.91 842 24.86 -19.8 -3.7 67 -24.6 -12.2
19:55 1013 29.91 842 24.86 -19.8 -3.7 69 -24.1 -11.4
20:00 1013 29.91 842 24.86 -19.7 -3.5 75 -23.1 -9.5
20:05 1013 29.91 842 24.86 -19.7 -3.4 76 -22.8 -9.1
20:10 1013 29.91 842 24.86 -19.8 -3.7 76 -23.1 -9.6
20:15 1013 29.91 842 24.86 -19.8 -3.6 77 -22.8 -9
20:20 1013 29.91 843 24.89 -19.5 -3 76 -22.6 -8.8
20:25 1013 29.91 843 24.89 -19.3 -2.8 76 -22.5 -8.5
20:30 1013 29.91 843 24.89 -19.1 -2.4 75 -22.5 -8.5
20:35 1013 29.91 843 24.89 -19.4 -2.9 75 -22.8 -9
20:40 1013 29.91 843 24.89 -19.8 -3.6 72 -23.6 -10.5
20:45 1013 29.91 843 24.89 -20 -4.1 75 -23.4 -10.2
20:50 1013 29.91 843 24.89 -19.7 -3.5 76 -23 -9.4
20:55 1014 29.94 843 24.89 -19.5 -3 75 -22.8 -9
21:00 1014 29.94 843 24.89 -19.3 -2.8 75 -22.7 -8.9
21:05 1014 29.94 843 24.89 -19.4 -3 75 -22.9 -9.2
21:10 1014 29.94 843 24.89 -19.5 -3.1 75 -22.9 -9.3
21:15 1014 29.94 843 24.89 -19.5 -3.2 74 -23 -9.4
21:20 1014 29.94 843 24.89 -19.6 -3.2 74 -23.1 -9.6
21:25 1014 29.94 843 24.89 -19.6 -3.2 74 -23 -9.5
21:30 1014 29.94 843 24.89 -19.6 -3.2 74 -23.1 -9.6
21:35 1014 29.94 843 24.89 -19.6 -3.3 75 -23 -9.5
21:40 1014 29.94 843 24.89 -19.6 -3.3 75 -23 -9.4
21:45 1014 29.94 843 24.89 -19.6 -3.4 75 -23.1 -9.5
21:50 1014 29.94 843 24.89 -19.7 -3.5 74 -23.2 -9.8
21:55 1014 29.94 843 24.89 -19.8 -3.6 73 -23.4 -10.2
22:00 1014 29.94 843 24.89 -19.9 -3.8 73 -23.6 -10.5
22:05 1014 29.94 843 24.89 -20 -4 74 -23.6 -10.5
22:10 1014 29.94 843 24.89 -20.1 -4.2 74 -23.7 -10.6
22:15 1014 29.94 843 24.89 -20.2 -4.4 73 -23.9 -10.9
22:20 1014 29.94 843 24.89 -20.3 -4.6 75 -23.7 -10.7
22:25 1014 29.94 843 24.89 -20.4 -4.6 74 -23.8 -10.9
22:30 1014 29.94 843 24.89 -20.4 -4.7 75 -23.8 -10.9
22:35 1014 29.94 843 24.89 -20.5 -4.9 75 -23.9 -11
22:40 1014 29.94 843 24.89 -20.6 -5.1 75 -24 -11.1
22:45 1014 29.94 843 24.89 -20.6 -5 74 -24 -11.2
22:50 1014 29.94 843 24.89 -20.7 -5.2 75 -24.1 -11.3
22:55 1014 29.94 844 24.92 -20.8 -5.4 74 -24.2 -11.6
23:00 1014 29.94 844 24.92 -20.9 -5.6 75 -24.3 -11.7
23:05 1014 29.94 844 24.92 -21 -5.8 75 -24.3 -11.8
23:10 1015 29.97 844 24.92 -21.1 -5.9 74 -24.5 -12.2
23:15 1015 29.97 844 24.92 -21.2 -6.1 74 -24.7 -12.5
23:20 1015 29.97 844 24.92 -21.4 -6.6 74 -24.9 -12.8
23:25 1015 29.97 844 24.92 -21.4 -6.6 75 -24.8 -12.7
23:30 1015 29.97 844 24.92 -21.5 -6.6 74 -25 -13
23:35 1015 29.97 844 24.92 -21.8 -7.3 75 -25.2 -13.3
23:40 1015 29.97 844 24.92 -22.1 -7.8 75 -25.5 -13.8
23:45 1015 29.97 844 24.92 -22.3 -8.1 75 -25.6 -14
23:50 1015 29.97 844 24.92 -22.5 -8.4 76 -25.6 -14
23:55 1015 29.97 844 24.92 -22.7 -8.8 76 -25.8 -14.5
24:00 1015 29.97 844 24.92 -22.9 -9.1 76 -26 -14.9